sensor_id;sensor_type;location;lat;lon;timestamp;P1;durP1;ratioP1;P2;durP2;ratioP2
53263;SDS011;39153;52.680;6.172;2023-03-24T00:02:18;14.18;;;6.30;;
53263;SDS011;39153;52.680;6.172;2023-03-24T00:04:46;11.40;;;5.03;;
53263;SDS011;39153;52.680;6.172;2023-03-24T00:07:13;12.70;;;5.45;;
53263;SDS011;39153;52.680;6.172;2023-03-24T00:09:43;12.05;;;5.60;;
53263;SDS011;39153;52.680;6.172;2023-03-24T00:12:10;11.35;;;5.18;;
53263;SDS011;39153;52.680;6.172;2023-03-24T00:14:42;9.90;;;5.13;;
53263;SDS011;39153;52.680;6.172;2023-03-24T00:17:10;15.13;;;5.75;;
53263;SDS011;39153;52.680;6.172;2023-03-24T00:19:38;13.88;;;5.10;;
53263;SDS011;39153;52.680;6.172;2023-03-24T00:22:07;10.27;;;5.35;;
53263;SDS011;39153;52.680;6.172;2023-03-24T00:24:38;9.00;;;4.68;;
53263;SDS011;39153;52.680;6.172;2023-03-24T00:27:05;11.00;;;5.20;;
53263;SDS011;39153;52.680;6.172;2023-03-24T00:29:30;10.40;;;4.85;;
53263;SDS011;39153;52.680;6.172;2023-03-24T00:31:57;9.40;;;5.05;;
53263;SDS011;39153;52.680;6.172;2023-03-24T00:34:24;9.52;;;4.80;;
53263;SDS011;39153;52.680;6.172;2023-03-24T00:36:50;12.18;;;5.10;;
53263;SDS011;39153;52.680;6.172;2023-03-24T00:39:19;9.55;;;5.10;;
53263;SDS011;39153;52.680;6.172;2023-03-24T00:41:45;9.88;;;5.00;;
53263;SDS011;39153;52.680;6.172;2023-03-24T00:44:13;13.32;;;4.70;;
53263;SDS011;39153;52.680;6.172;2023-03-24T00:46:48;9.13;;;4.97;;
53263;SDS011;39153;52.680;6.172;2023-03-24T00:49:28;9.77;;;4.85;;
53263;SDS011;39153;52.680;6.172;2023-03-24T00:52:13;10.95;;;4.95;;
53263;SDS011;39153;52.680;6.172;2023-03-24T00:54:42;9.35;;;4.95;;
53263;SDS011;39153;52.680;6.172;2023-03-24T00:57:10;9.15;;;4.10;;
53263;SDS011;39153;52.680;6.172;2023-03-24T00:59:45;10.02;;;4.70;;
53263;SDS011;39153;52.680;6.172;2023-03-24T01:02:17;10.38;;;4.07;;
53263;SDS011;39153;52.680;6.172;2023-03-24T01:04:52;10.90;;;4.63;;
53263;SDS011;39153;52.680;6.172;2023-03-24T01:07:20;8.63;;;4.90;;
53263;SDS011;39153;52.680;6.172;2023-03-24T01:09:48;10.60;;;5.13;;
53263;SDS011;39153;52.680;6.172;2023-03-24T01:12:25;9.45;;;3.85;;
53263;SDS011;39153;52.680;6.172;2023-03-24T01:14:55;9.18;;;5.05;;
53263;SDS011;39153;52.680;6.172;2023-03-24T01:17:22;8.15;;;4.35;;
53263;SDS011;39153;52.680;6.172;2023-03-24T01:19:52;10.35;;;4.15;;
53263;SDS011;39153;52.680;6.172;2023-03-24T01:22:19;7.78;;;4.50;;
53263;SDS011;39153;52.680;6.172;2023-03-24T01:24:45;10.43;;;4.65;;
53263;SDS011;39153;52.680;6.172;2023-03-24T01:27:12;12.18;;;4.22;;
53263;SDS011;39153;52.680;6.172;2023-03-24T01:29:38;10.23;;;4.70;;
53263;SDS011;39153;52.680;6.172;2023-03-24T01:32:04;8.13;;;4.78;;
53263;SDS011;39153;52.680;6.172;2023-03-24T01:34:31;9.02;;;4.60;;
53263;SDS011;39153;52.680;6.172;2023-03-24T01:36:57;8.50;;;4.68;;
53263;SDS011;39153;52.680;6.172;2023-03-24T01:39:23;7.70;;;4.30;;
53263;SDS011;39153;52.680;6.172;2023-03-24T01:41:49;8.90;;;3.92;;
53263;SDS011;39153;52.680;6.172;2023-03-24T01:44:25;8.27;;;4.00;;
53263;SDS011;39153;52.680;6.172;2023-03-24T01:46:55;6.47;;;4.03;;
53263;SDS011;39153;52.680;6.172;2023-03-24T01:49:22;8.27;;;4.00;;
53263;SDS011;39153;52.680;6.172;2023-03-24T01:51:52;6.72;;;3.70;;
53263;SDS011;39153;52.680;6.172;2023-03-24T01:54:22;7.65;;;4.05;;
53263;SDS011;39153;52.680;6.172;2023-03-24T01:57:14;7.75;;;3.67;;
53263;SDS011;39153;52.680;6.172;2023-03-24T01:59:42;6.82;;;3.65;;
53263;SDS011;39153;52.680;6.172;2023-03-24T02:02:11;9.80;;;4.47;;
53263;SDS011;39153;52.680;6.172;2023-03-24T02:04:49;6.53;;;3.80;;
53263;SDS011;39153;52.680;6.172;2023-03-24T02:09:53;7.22;;;3.90;;
53263;SDS011;39153;52.680;6.172;2023-03-24T02:12:19;8.05;;;3.70;;
53263;SDS011;39153;52.680;6.172;2023-03-24T02:14:45;8.73;;;4.07;;
53263;SDS011;39153;52.680;6.172;2023-03-24T02:17:14;9.30;;;4.00;;
53263;SDS011;39153;52.680;6.172;2023-03-24T02:28:49;6.80;;;3.70;;
53263;SDS011;39153;52.680;6.172;2023-03-24T02:37:31;6.32;;;3.70;;
53263;SDS011;39153;52.680;6.172;2023-03-24T02:45:53;8.55;;;4.18;;
53263;SDS011;39153;52.680;6.172;2023-03-24T02:51:15;7.35;;;4.60;;
53263;SDS011;39153;52.680;6.172;2023-03-24T02:54:06;6.35;;;4.30;;
53263;SDS011;39153;52.680;6.172;2023-03-24T03:02:01;7.45;;;4.22;;
53263;SDS011;39153;52.680;6.172;2023-03-24T03:04:39;7.20;;;3.97;;
53263;SDS011;39153;52.680;6.172;2023-03-24T03:07:10;7.35;;;4.25;;
53263;SDS011;39153;52.680;6.172;2023-03-24T03:09:42;6.68;;;3.97;;
53263;SDS011;39153;52.680;6.172;2023-03-24T03:12:17;7.60;;;4.70;;
53263;SDS011;39153;52.680;6.172;2023-03-24T03:14:47;6.90;;;4.50;;
53263;SDS011;39153;52.680;6.172;2023-03-24T03:17:19;7.88;;;5.32;;
53263;SDS011;39153;52.680;6.172;2023-03-24T03:19:55;7.82;;;5.00;;
53263;SDS011;39153;52.680;6.172;2023-03-24T03:22:29;8.35;;;4.95;;
53263;SDS011;39153;52.680;6.172;2023-03-24T03:25:07;7.03;;;3.97;;
53263;SDS011;39153;52.680;6.172;2023-03-24T03:27:36;6.30;;;4.13;;
53263;SDS011;39153;52.680;6.172;2023-03-24T03:30:07;5.88;;;2.90;;
53263;SDS011;39153;52.680;6.172;2023-03-24T03:33:03;5.00;;;1.88;;
53263;SDS011;39153;52.680;6.172;2023-03-24T03:35:44;6.90;;;1.90;;
53263;SDS011;39153;52.680;6.172;2023-03-24T03:41:04;5.73;;;1.77;;
53263;SDS011;39153;52.680;6.172;2023-03-24T03:43:30;5.95;;;1.48;;
53263;SDS011;39153;52.680;6.172;2023-03-24T03:45:58;6.95;;;1.60;;
53263;SDS011;39153;52.680;6.172;2023-03-24T03:48:25;5.97;;;1.77;;
53263;SDS011;39153;52.680;6.172;2023-03-24T03:50:53;10.10;;;1.90;;
53263;SDS011;39153;52.680;6.172;2023-03-24T03:53:21;6.95;;;1.73;;
53263;SDS011;39153;52.680;6.172;2023-03-24T03:55:51;7.13;;;2.08;;
53263;SDS011;39153;52.680;6.172;2023-03-24T03:58:17;9.38;;;1.85;;
53263;SDS011;39153;52.680;6.172;2023-03-24T04:00:43;9.15;;;1.67;;
53263;SDS011;39153;52.680;6.172;2023-03-24T04:03:29;9.20;;;1.80;;
53263;SDS011;39153;52.680;6.172;2023-03-24T04:08:58;8.65;;;1.67;;
53263;SDS011;39153;52.680;6.172;2023-03-24T04:20:25;7.28;;;1.60;;
53263;SDS011;39153;52.680;6.172;2023-03-24T04:23:00;7.70;;;1.70;;
53263;SDS011;39153;52.680;6.172;2023-03-24T04:25:52;9.10;;;2.03;;
53263;SDS011;39153;52.680;6.172;2023-03-24T04:31:36;11.43;;;2.15;;
53263;SDS011;39153;52.680;6.172;2023-03-24T04:37:12;12.57;;;2.40;;
53263;SDS011;39153;52.680;6.172;2023-03-24T04:39:42;9.95;;;2.67;;
53263;SDS011;39153;52.680;6.172;2023-03-24T04:42:12;10.10;;;2.28;;
53263;SDS011;39153;52.680;6.172;2023-03-24T04:44:45;12.48;;;2.10;;
53263;SDS011;39153;52.680;6.172;2023-03-24T04:47:16;15.23;;;2.28;;
53263;SDS011;39153;52.680;6.172;2023-03-24T04:49:45;8.82;;;1.73;;
53263;SDS011;39153;52.680;6.172;2023-03-24T04:52:11;12.00;;;2.08;;
53263;SDS011;39153;52.680;6.172;2023-03-24T04:54:36;11.65;;;2.47;;
53263;SDS011;39153;52.680;6.172;2023-03-24T04:57:02;13.30;;;2.40;;
53263;SDS011;39153;52.680;6.172;2023-03-24T04:59:30;11.68;;;2.40;;
53263;SDS011;39153;52.680;6.172;2023-03-24T05:01:58;9.25;;;1.85;;
53263;SDS011;39153;52.680;6.172;2023-03-24T05:04:28;12.05;;;2.22;;
53263;SDS011;39153;52.680;6.172;2023-03-24T05:06:54;12.98;;;2.03;;
53263;SDS011;39153;52.680;6.172;2023-03-24T05:09:21;11.30;;;2.00;;
53263;SDS011;39153;52.680;6.172;2023-03-24T05:11:49;12.02;;;1.98;;
53263;SDS011;39153;52.680;6.172;2023-03-24T05:14:16;11.07;;;2.05;;
53263;SDS011;39153;52.680;6.172;2023-03-24T05:16:42;7.10;;;2.22;;
53263;SDS011;39153;52.680;6.172;2023-03-24T05:19:07;9.32;;;1.75;;
53263;SDS011;39153;52.680;6.172;2023-03-24T05:21:33;9.98;;;1.73;;
53263;SDS011;39153;52.680;6.172;2023-03-24T05:23:59;11.52;;;2.40;;
53263;SDS011;39153;52.680;6.172;2023-03-24T05:26:25;6.78;;;1.90;;
53263;SDS011;39153;52.680;6.172;2023-03-24T05:28:51;11.90;;;2.28;;
53263;SDS011;39153;52.680;6.172;2023-03-24T05:31:17;14.88;;;2.25;;
53263;SDS011;39153;52.680;6.172;2023-03-24T05:33:43;9.05;;;2.28;;
53263;SDS011;39153;52.680;6.172;2023-03-24T05:36:10;10.25;;;2.08;;
53263;SDS011;39153;52.680;6.172;2023-03-24T05:38:36;11.95;;;2.08;;
53263;SDS011;39153;52.680;6.172;2023-03-24T05:41:02;10.60;;;2.17;;
53263;SDS011;39153;52.680;6.172;2023-03-24T05:43:28;10.15;;;1.80;;
53263;SDS011;39153;52.680;6.172;2023-03-24T05:45:53;8.40;;;1.95;;
53263;SDS011;39153;52.680;6.172;2023-03-24T05:48:20;9.90;;;2.10;;
53263;SDS011;39153;52.680;6.172;2023-03-24T05:50:46;11.18;;;2.03;;
53263;SDS011;39153;52.680;6.172;2023-03-24T05:53:12;9.43;;;2.00;;
53263;SDS011;39153;52.680;6.172;2023-03-24T05:55:37;11.88;;;2.25;;
53263;SDS011;39153;52.680;6.172;2023-03-24T05:58:04;9.32;;;1.95;;
53263;SDS011;39153;52.680;6.172;2023-03-24T06:00:30;8.50;;;2.22;;
53263;SDS011;39153;52.680;6.172;2023-03-24T06:02:57;9.00;;;2.40;;
53263;SDS011;39153;52.680;6.172;2023-03-24T06:05:23;13.07;;;2.50;;
53263;SDS011;39153;52.680;6.172;2023-03-24T06:07:50;12.98;;;2.60;;
53263;SDS011;39153;52.680;6.172;2023-03-24T06:10:16;16.38;;;2.75;;
53263;SDS011;39153;52.680;6.172;2023-03-24T06:12:43;14.77;;;2.65;;
53263;SDS011;39153;52.680;6.172;2023-03-24T06:15:10;12.98;;;2.03;;
53263;SDS011;39153;52.680;6.172;2023-03-24T06:17:41;17.58;;;2.97;;
53263;SDS011;39153;52.680;6.172;2023-03-24T06:20:08;14.23;;;2.90;;
53263;SDS011;39153;52.680;6.172;2023-03-24T06:22:39;17.45;;;2.13;;
53263;SDS011;39153;52.680;6.172;2023-03-24T06:25:07;16.45;;;2.88;;
53263;SDS011;39153;52.680;6.172;2023-03-24T06:27:33;13.55;;;2.20;;
53263;SDS011;39153;52.680;6.172;2023-03-24T06:29:59;17.27;;;2.58;;
53263;SDS011;39153;52.680;6.172;2023-03-24T06:32:26;17.92;;;2.80;;
53263;SDS011;39153;52.680;6.172;2023-03-24T06:34:53;16.02;;;3.05;;
53263;SDS011;39153;52.680;6.172;2023-03-24T06:37:22;14.43;;;2.78;;
53263;SDS011;39153;52.680;6.172;2023-03-24T06:39:48;15.77;;;2.55;;
53263;SDS011;39153;52.680;6.172;2023-03-24T06:42:14;17.08;;;3.00;;
53263;SDS011;39153;52.680;6.172;2023-03-24T06:44:40;15.75;;;3.08;;
53263;SDS011;39153;52.680;6.172;2023-03-24T06:47:06;14.25;;;2.40;;
53263;SDS011;39153;52.680;6.172;2023-03-24T06:49:31;15.88;;;3.05;;
53263;SDS011;39153;52.680;6.172;2023-03-24T06:51:59;19.92;;;2.63;;
53263;SDS011;39153;52.680;6.172;2023-03-24T06:54:25;17.75;;;2.75;;
53263;SDS011;39153;52.680;6.172;2023-03-24T06:56:52;18.05;;;3.15;;
53263;SDS011;39153;52.680;6.172;2023-03-24T06:59:18;21.67;;;2.95;;
53263;SDS011;39153;52.680;6.172;2023-03-24T07:01:48;20.92;;;3.10;;
53263;SDS011;39153;52.680;6.172;2023-03-24T07:04:17;19.92;;;3.33;;
53263;SDS011;39153;52.680;6.172;2023-03-24T07:06:44;22.00;;;3.20;;
53263;SDS011;39153;52.680;6.172;2023-03-24T07:09:10;16.63;;;3.03;;
53263;SDS011;39153;52.680;6.172;2023-03-24T07:11:39;21.98;;;4.05;;
53263;SDS011;39153;52.680;6.172;2023-03-24T07:14:05;22.67;;;4.22;;
53263;SDS011;39153;52.680;6.172;2023-03-24T07:16:31;21.08;;;3.65;;
53263;SDS011;39153;52.680;6.172;2023-03-24T07:18:57;19.17;;;3.35;;
53263;SDS011;39153;52.680;6.172;2023-03-24T07:21:22;20.27;;;3.22;;
53263;SDS011;39153;52.680;6.172;2023-03-24T07:23:48;18.15;;;3.35;;
53263;SDS011;39153;52.680;6.172;2023-03-24T07:26:14;22.38;;;3.17;;
53263;SDS011;39153;52.680;6.172;2023-03-24T07:28:39;22.75;;;3.72;;
53263;SDS011;39153;52.680;6.172;2023-03-24T07:31:05;25.45;;;3.53;;
53263;SDS011;39153;52.680;6.172;2023-03-24T07:33:34;18.42;;;3.58;;
53263;SDS011;39153;52.680;6.172;2023-03-24T07:36:01;28.58;;;3.92;;
53263;SDS011;39153;52.680;6.172;2023-03-24T07:38:27;24.08;;;3.80;;
53263;SDS011;39153;52.680;6.172;2023-03-24T07:40:52;18.33;;;3.13;;
53263;SDS011;39153;52.680;6.172;2023-03-24T07:43:18;22.90;;;3.88;;
53263;SDS011;39153;52.680;6.172;2023-03-24T07:45:44;23.42;;;3.63;;
53263;SDS011;39153;52.680;6.172;2023-03-24T07:48:10;21.85;;;4.00;;
53263;SDS011;39153;52.680;6.172;2023-03-24T07:50:36;20.80;;;3.53;;
53263;SDS011;39153;52.680;6.172;2023-03-24T07:53:02;22.98;;;3.22;;
53263;SDS011;39153;52.680;6.172;2023-03-24T07:55:28;16.90;;;3.35;;
53263;SDS011;39153;52.680;6.172;2023-03-24T07:57:54;20.60;;;3.60;;
53263;SDS011;39153;52.680;6.172;2023-03-24T08:00:20;24.17;;;3.92;;
53263;SDS011;39153;52.680;6.172;2023-03-24T08:02:49;19.92;;;3.47;;
53263;SDS011;39153;52.680;6.172;2023-03-24T08:05:17;17.02;;;3.08;;
53263;SDS011;39153;52.680;6.172;2023-03-24T08:07:47;19.58;;;3.15;;
53263;SDS011;39153;52.680;6.172;2023-03-24T08:10:17;15.63;;;3.28;;
53263;SDS011;39153;52.680;6.172;2023-03-24T08:12:45;18.90;;;3.03;;
53263;SDS011;39153;52.680;6.172;2023-03-24T08:15:12;15.70;;;2.70;;
53263;SDS011;39153;52.680;6.172;2023-03-24T08:17:38;18.92;;;3.85;;
53263;SDS011;39153;52.680;6.172;2023-03-24T08:20:05;18.80;;;3.13;;
53263;SDS011;39153;52.680;6.172;2023-03-24T08:22:38;19.33;;;3.20;;
53263;SDS011;39153;52.680;6.172;2023-03-24T08:25:05;14.75;;;3.28;;
53263;SDS011;39153;52.680;6.172;2023-03-24T08:27:32;14.00;;;3.28;;
53263;SDS011;39153;52.680;6.172;2023-03-24T08:29:58;22.05;;;3.58;;
53263;SDS011;39153;52.680;6.172;2023-03-24T08:32:23;18.20;;;3.35;;
53263;SDS011;39153;52.680;6.172;2023-03-24T08:34:49;15.55;;;3.15;;
53263;SDS011;39153;52.680;6.172;2023-03-24T08:37:15;18.40;;;3.28;;
53263;SDS011;39153;52.680;6.172;2023-03-24T08:39:40;19.65;;;4.03;;
53263;SDS011;39153;52.680;6.172;2023-03-24T08:42:06;18.60;;;3.35;;
53263;SDS011;39153;52.680;6.172;2023-03-24T08:44:32;16.73;;;2.80;;
53263;SDS011;39153;52.680;6.172;2023-03-24T08:46:59;20.02;;;3.17;;
53263;SDS011;39153;52.680;6.172;2023-03-24T08:49:25;21.75;;;3.78;;
53263;SDS011;39153;52.680;6.172;2023-03-24T08:51:51;18.27;;;3.90;;
53263;SDS011;39153;52.680;6.172;2023-03-24T08:54:17;19.55;;;4.40;;
53263;SDS011;39153;52.680;6.172;2023-03-24T08:56:43;20.73;;;4.05;;
53263;SDS011;39153;52.680;6.172;2023-03-24T08:59:08;22.63;;;4.00;;
53263;SDS011;39153;52.680;6.172;2023-03-24T09:01:34;26.60;;;4.53;;
53263;SDS011;39153;52.680;6.172;2023-03-24T09:04:00;18.25;;;3.25;;
53263;SDS011;39153;52.680;6.172;2023-03-24T09:06:26;19.15;;;3.00;;
53263;SDS011;39153;52.680;6.172;2023-03-24T09:08:53;17.17;;;3.00;;
53263;SDS011;39153;52.680;6.172;2023-03-24T09:11:19;19.77;;;3.22;;
53263;SDS011;39153;52.680;6.172;2023-03-24T09:13:46;16.42;;;2.67;;
53263;SDS011;39153;52.680;6.172;2023-03-24T09:16:12;17.83;;;2.97;;
53263;SDS011;39153;52.680;6.172;2023-03-24T09:18:38;17.08;;;3.40;;
53263;SDS011;39153;52.680;6.172;2023-03-24T09:21:05;15.48;;;3.10;;
53263;SDS011;39153;52.680;6.172;2023-03-24T09:23:31;18.48;;;3.33;;
53263;SDS011;39153;52.680;6.172;2023-03-24T09:25:57;15.27;;;2.80;;
53263;SDS011;39153;52.680;6.172;2023-03-24T09:28:24;21.23;;;3.35;;
53263;SDS011;39153;52.680;6.172;2023-03-24T09:30:50;18.45;;;3.10;;
53263;SDS011;39153;52.680;6.172;2023-03-24T09:33:20;17.23;;;3.22;;
53263;SDS011;39153;52.680;6.172;2023-03-24T09:35:51;14.52;;;2.88;;
53263;SDS011;39153;52.680;6.172;2023-03-24T09:38:21;19.20;;;3.40;;
53263;SDS011;39153;52.680;6.172;2023-03-24T09:40:48;19.85;;;3.97;;
53263;SDS011;39153;52.680;6.172;2023-03-24T09:43:26;18.80;;;2.97;;
53263;SDS011;39153;52.680;6.172;2023-03-24T09:45:55;18.40;;;2.83;;
53263;SDS011;39153;52.680;6.172;2023-03-24T09:48:42;14.52;;;2.72;;
53263;SDS011;39153;52.680;6.172;2023-03-24T09:51:19;13.30;;;2.45;;
53263;SDS011;39153;52.680;6.172;2023-03-24T09:54:20;20.42;;;2.80;;
53263;SDS011;39153;52.680;6.172;2023-03-24T09:56:41;16.63;;;2.88;;
53263;SDS011;39153;52.680;6.172;2023-03-24T09:59:20;15.25;;;3.03;;
53263;SDS011;39153;52.680;6.172;2023-03-24T10:01:57;15.32;;;2.97;;
53263;SDS011;39153;52.680;6.172;2023-03-24T10:04:26;18.33;;;2.70;;
53263;SDS011;39153;52.680;6.172;2023-03-24T10:09:40;12.98;;;2.60;;
53263;SDS011;39153;52.680;6.172;2023-03-24T10:15:03;17.58;;;3.10;;
53263;SDS011;39153;52.680;6.172;2023-03-24T10:23:24;16.42;;;3.42;;
53263;SDS011;39153;52.680;6.172;2023-03-24T10:31:30;20.52;;;3.25;;
53263;SDS011;39153;52.680;6.172;2023-03-24T10:33:58;15.30;;;2.88;;
53263;SDS011;39153;52.680;6.172;2023-03-24T10:36:24;17.13;;;2.88;;
53263;SDS011;39153;52.680;6.172;2023-03-24T10:38:52;16.67;;;3.75;;
53263;SDS011;39153;52.680;6.172;2023-03-24T10:41:18;14.60;;;2.92;;
53263;SDS011;39153;52.680;6.172;2023-03-24T10:43:55;18.10;;;4.03;;
53263;SDS011;39153;52.680;6.172;2023-03-24T10:46:26;17.13;;;3.40;;
53263;SDS011;39153;52.680;6.172;2023-03-24T10:49:05;16.75;;;3.83;;
53263;SDS011;39153;52.680;6.172;2023-03-24T10:51:34;14.90;;;2.97;;
53263;SDS011;39153;52.680;6.172;2023-03-24T10:54:10;18.15;;;3.80;;
53263;SDS011;39153;52.680;6.172;2023-03-24T11:04:38;11.15;;;2.78;;
53263;SDS011;39153;52.680;6.172;2023-03-24T11:07:18;13.60;;;2.83;;
53263;SDS011;39153;52.680;6.172;2023-03-24T11:12:43;13.02;;;2.90;;
53263;SDS011;39153;52.680;6.172;2023-03-24T11:15:27;15.38;;;2.95;;
53263;SDS011;39153;52.680;6.172;2023-03-24T11:20:36;13.38;;;2.90;;
53263;SDS011;39153;52.680;6.172;2023-03-24T11:25:40;14.23;;;2.97;;
53263;SDS011;39153;52.680;6.172;2023-03-24T11:28:14;12.30;;;2.67;;
53263;SDS011;39153;52.680;6.172;2023-03-24T11:30:45;11.73;;;2.70;;
53263;SDS011;39153;52.680;6.172;2023-03-24T11:33:24;13.88;;;3.22;;
53263;SDS011;39153;52.680;6.172;2023-03-24T11:35:57;15.45;;;3.28;;
53263;SDS011;39153;52.680;6.172;2023-03-24T11:38:29;14.57;;;2.90;;
53263;SDS011;39153;52.680;6.172;2023-03-24T11:41:00;10.75;;;2.50;;
53263;SDS011;39153;52.680;6.172;2023-03-24T11:43:29;10.95;;;2.42;;
53263;SDS011;39153;52.680;6.172;2023-03-24T11:46:15;13.60;;;3.28;;
53263;SDS011;39153;52.680;6.172;2023-03-24T11:48:54;14.48;;;2.97;;
53263;SDS011;39153;52.680;6.172;2023-03-24T11:51:36;14.57;;;2.70;;
53263;SDS011;39153;52.680;6.172;2023-03-24T11:54:12;14.48;;;2.70;;
53263;SDS011;39153;52.680;6.172;2023-03-24T11:56:47;13.63;;;3.15;;
53263;SDS011;39153;52.680;6.172;2023-03-24T11:59:45;12.00;;;2.40;;
53263;SDS011;39153;52.680;6.172;2023-03-24T12:13:11;15.55;;;3.00;;
53263;SDS011;39153;52.680;6.172;2023-03-24T12:27:14;16.13;;;3.13;;
53263;SDS011;39153;52.680;6.172;2023-03-24T12:30:01;13.07;;;3.03;;
53263;SDS011;39153;52.680;6.172;2023-03-24T12:43:49;15.20;;;3.40;;
53263;SDS011;39153;52.680;6.172;2023-03-24T12:57:38;14.88;;;3.15;;
53263;SDS011;39153;52.680;6.172;2023-03-24T13:00:13;17.65;;;3.17;;
53263;SDS011;39153;52.680;6.172;2023-03-24T13:05:20;14.98;;;2.90;;
53263;SDS011;39153;52.680;6.172;2023-03-24T13:07:51;13.82;;;2.60;;
53263;SDS011;39153;52.680;6.172;2023-03-24T13:10:23;14.05;;;2.78;;
53263;SDS011;39153;52.680;6.172;2023-03-24T13:26:09;14.93;;;3.17;;
53263;SDS011;39153;52.680;6.172;2023-03-24T13:28:48;13.68;;;2.80;;
53263;SDS011;39153;52.680;6.172;2023-03-24T13:31:30;12.73;;;2.90;;
53263;SDS011;39153;52.680;6.172;2023-03-24T13:34:02;16.73;;;3.20;;
53263;SDS011;39153;52.680;6.172;2023-03-24T13:36:49;14.32;;;3.40;;
53263;SDS011;39153;52.680;6.172;2023-03-24T13:39:20;12.57;;;2.50;;
53263;SDS011;39153;52.680;6.172;2023-03-24T13:41:48;12.70;;;2.80;;
53263;SDS011;39153;52.680;6.172;2023-03-24T13:44:17;13.75;;;3.03;;
53263;SDS011;39153;52.680;6.172;2023-03-24T13:46:59;14.82;;;3.08;;
53263;SDS011;39153;52.680;6.172;2023-03-24T13:49:33;12.23;;;2.88;;
53263;SDS011;39153;52.680;6.172;2023-03-24T13:52:04;14.15;;;3.00;;
53263;SDS011;39153;52.680;6.172;2023-03-24T13:54:33;15.18;;;3.38;;
53263;SDS011;39153;52.680;6.172;2023-03-24T13:59:56;11.32;;;2.30;;
53263;SDS011;39153;52.680;6.172;2023-03-24T14:07:50;10.77;;;2.60;;
53263;SDS011;39153;52.680;6.172;2023-03-24T14:15:49;12.07;;;2.45;;
53263;SDS011;39153;52.680;6.172;2023-03-24T14:23:39;12.38;;;2.25;;
53263;SDS011;39153;52.680;6.172;2023-03-24T14:28:45;8.50;;;2.10;;
53263;SDS011;39153;52.680;6.172;2023-03-24T14:36:28;10.75;;;2.50;;
53263;SDS011;39153;52.680;6.172;2023-03-24T14:38:55;9.98;;;2.30;;
53263;SDS011;39153;52.680;6.172;2023-03-24T14:41:30;9.52;;;2.00;;
53263;SDS011;39153;52.680;6.172;2023-03-24T14:44:03;11.23;;;2.28;;
53263;SDS011;39153;52.680;6.172;2023-03-24T14:49:30;10.85;;;2.20;;
53263;SDS011;39153;52.680;6.172;2023-03-24T14:54:38;15.80;;;3.50;;
53263;SDS011;39153;52.680;6.172;2023-03-24T14:57:15;11.45;;;2.67;;
53263;SDS011;39153;52.680;6.172;2023-03-24T15:00:07;8.85;;;2.25;;
53263;SDS011;39153;52.680;6.172;2023-03-24T15:05:22;9.82;;;2.13;;
53263;SDS011;39153;52.680;6.172;2023-03-24T15:10:48;11.25;;;2.28;;
53263;SDS011;39153;52.680;6.172;2023-03-24T15:15:55;12.05;;;2.28;;
53263;SDS011;39153;52.680;6.172;2023-03-24T15:18:21;14.68;;;2.20;;
53263;SDS011;39153;52.680;6.172;2023-03-24T15:20:48;8.10;;;2.10;;
53263;SDS011;39153;52.680;6.172;2023-03-24T15:23:21;10.32;;;2.38;;
53263;SDS011;39153;52.680;6.172;2023-03-24T15:25:50;8.98;;;2.10;;
53263;SDS011;39153;52.680;6.172;2023-03-24T15:28:26;13.52;;;3.40;;
53263;SDS011;39153;52.680;6.172;2023-03-24T15:30:54;9.82;;;2.13;;
53263;SDS011;39153;52.680;6.172;2023-03-24T15:33:24;12.57;;;2.20;;
53263;SDS011;39153;52.680;6.172;2023-03-24T15:35:59;13.30;;;2.17;;
53263;SDS011;39153;52.680;6.172;2023-03-24T15:38:27;9.18;;;1.80;;
53263;SDS011;39153;52.680;6.172;2023-03-24T15:40:57;9.23;;;2.10;;
53263;SDS011;39153;52.680;6.172;2023-03-24T15:43:27;8.18;;;1.60;;
53263;SDS011;39153;52.680;6.172;2023-03-24T15:45:54;8.90;;;2.05;;
53263;SDS011;39153;52.680;6.172;2023-03-24T15:48:24;8.27;;;2.10;;
53263;SDS011;39153;52.680;6.172;2023-03-24T15:50:56;8.77;;;1.75;;
53263;SDS011;39153;52.680;6.172;2023-03-24T15:53:23;9.15;;;1.65;;
53263;SDS011;39153;52.680;6.172;2023-03-24T15:58:46;10.20;;;1.80;;
53263;SDS011;39153;52.680;6.172;2023-03-24T16:01:18;9.05;;;1.77;;
53263;SDS011;39153;52.680;6.172;2023-03-24T16:03:51;9.40;;;1.50;;
53263;SDS011;39153;52.680;6.172;2023-03-24T16:06:26;9.18;;;1.35;;
53263;SDS011;39153;52.680;6.172;2023-03-24T16:08:57;5.95;;;1.10;;
53263;SDS011;39153;52.680;6.172;2023-03-24T16:11:24;7.63;;;1.50;;
53263;SDS011;39153;52.680;6.172;2023-03-24T16:13:50;7.68;;;1.20;;
53263;SDS011;39153;52.680;6.172;2023-03-24T16:16:21;6.43;;;1.40;;
53263;SDS011;39153;52.680;6.172;2023-03-24T16:18:52;4.68;;;1.00;;
53263;SDS011;39153;52.680;6.172;2023-03-24T16:21:19;6.75;;;1.30;;
53263;SDS011;39153;52.680;6.172;2023-03-24T16:23:50;6.35;;;1.40;;
53263;SDS011;39153;52.680;6.172;2023-03-24T16:26:21;10.45;;;1.50;;
53263;SDS011;39153;52.680;6.172;2023-03-24T16:28:49;7.53;;;1.23;;
53263;SDS011;39153;52.680;6.172;2023-03-24T16:33:46;7.90;;;1.63;;
53263;SDS011;39153;52.680;6.172;2023-03-24T16:36:12;7.75;;;1.60;;
53263;SDS011;39153;52.680;6.172;2023-03-24T16:38:39;7.43;;;1.70;;
53263;SDS011;39153;52.680;6.172;2023-03-24T16:41:05;7.65;;;1.60;;
53263;SDS011;39153;52.680;6.172;2023-03-24T16:43:35;9.63;;;1.98;;
53263;SDS011;39153;52.680;6.172;2023-03-24T16:46:01;7.53;;;1.67;;
53263;SDS011;39153;52.680;6.172;2023-03-24T16:48:27;8.50;;;1.80;;
53263;SDS011;39153;52.680;6.172;2023-03-24T16:50:53;7.22;;;1.77;;
53263;SDS011;39153;52.680;6.172;2023-03-24T16:53:20;10.75;;;2.08;;
53263;SDS011;39153;52.680;6.172;2023-03-24T16:55:46;7.50;;;1.70;;
53263;SDS011;39153;52.680;6.172;2023-03-24T16:58:12;6.50;;;1.60;;
53263;SDS011;39153;52.680;6.172;2023-03-24T17:00:40;8.02;;;1.65;;
53263;SDS011;39153;52.680;6.172;2023-03-24T17:03:08;7.90;;;1.77;;
53263;SDS011;39153;52.680;6.172;2023-03-24T17:08:13;11.80;;;2.17;;
53263;SDS011;39153;52.680;6.172;2023-03-24T17:10:40;8.27;;;2.08;;
53263;SDS011;39153;52.680;6.172;2023-03-24T17:13:08;8.50;;;2.00;;
53263;SDS011;39153;52.680;6.172;2023-03-24T17:15:37;9.98;;;2.05;;
53263;SDS011;39153;52.680;6.172;2023-03-24T17:18:03;10.52;;;2.03;;
53263;SDS011;39153;52.680;6.172;2023-03-24T17:20:29;13.18;;;2.03;;
53263;SDS011;39153;52.680;6.172;2023-03-24T17:22:54;10.50;;;2.00;;
53263;SDS011;39153;52.680;6.172;2023-03-24T17:25:23;10.90;;;2.03;;
53263;SDS011;39153;52.680;6.172;2023-03-24T17:27:53;10.23;;;2.10;;
53263;SDS011;39153;52.680;6.172;2023-03-24T17:30:21;8.88;;;2.10;;
53263;SDS011;39153;52.680;6.172;2023-03-24T17:32:47;15.35;;;2.20;;
53263;SDS011;39153;52.680;6.172;2023-03-24T17:35:15;7.18;;;1.77;;
53263;SDS011;39153;52.680;6.172;2023-03-24T17:37:42;11.25;;;2.30;;
53263;SDS011;39153;52.680;6.172;2023-03-24T17:40:09;10.02;;;1.63;;
53263;SDS011;39153;52.680;6.172;2023-03-24T17:42:39;10.32;;;1.90;;
53263;SDS011;39153;52.680;6.172;2023-03-24T17:45:07;7.05;;;2.00;;
53263;SDS011;39153;52.680;6.172;2023-03-24T17:47:34;8.40;;;1.70;;
53263;SDS011;39153;52.680;6.172;2023-03-24T17:50:00;8.40;;;2.03;;
53263;SDS011;39153;52.680;6.172;2023-03-24T17:52:28;8.75;;;1.52;;
53263;SDS011;39153;52.680;6.172;2023-03-24T17:54:54;7.97;;;1.95;;
53263;SDS011;39153;52.680;6.172;2023-03-24T17:57:20;10.20;;;1.75;;
53263;SDS011;39153;52.680;6.172;2023-03-24T17:59:46;9.52;;;1.58;;
53263;SDS011;39153;52.680;6.172;2023-03-24T18:02:11;11.70;;;1.77;;
53263;SDS011;39153;52.680;6.172;2023-03-24T18:04:37;8.80;;;1.63;;
53263;SDS011;39153;52.680;6.172;2023-03-24T18:07:03;7.45;;;1.52;;
53263;SDS011;39153;52.680;6.172;2023-03-24T18:09:32;9.35;;;2.33;;